createdAt,value
2022-11-21T00:00:45.493Z,986.24
2022-11-21T00:01:45.542Z,986.16
2022-11-21T00:02:45.474Z,986.18
2022-11-21T00:03:45.444Z,986.18
2022-11-21T00:04:45.432Z,986.23
2022-11-21T00:05:45.425Z,986.07
2022-11-21T00:06:45.404Z,986.15
2022-11-21T00:07:45.423Z,986.14
2022-11-21T00:08:45.388Z,986.23
2022-11-21T00:09:45.383Z,986.25
2022-11-21T00:10:45.365Z,986.14
2022-11-21T00:11:45.373Z,986.21
2022-11-21T00:12:45.344Z,986.30
2022-11-21T00:13:45.357Z,986.22
2022-11-21T00:14:45.327Z,986.24
2022-11-21T00:15:45.305Z,986.26
2022-11-21T00:16:45.294Z,986.14
2022-11-21T00:17:45.292Z,986.18
2022-11-21T00:18:45.275Z,986.22
2022-11-21T00:19:45.283Z,986.21
2022-11-21T00:20:45.264Z,986.23
2022-11-21T00:21:45.253Z,986.36
2022-11-21T00:22:45.232Z,986.19
2022-11-21T00:23:45.217Z,986.26
2022-11-21T00:24:45.233Z,986.32
2022-11-21T00:25:45.194Z,986.28
2022-11-21T00:26:45.182Z,986.22
2022-11-21T00:27:45.180Z,986.24
2022-11-21T00:28:45.161Z,986.11
2022-11-21T00:29:45.154Z,986.19
2022-11-21T00:30:45.165Z,986.22
2022-11-21T00:31:45.122Z,986.29
2022-11-21T00:32:45.123Z,986.22
2022-11-21T00:33:45.105Z,986.20
2022-11-21T00:34:45.092Z,986.18
2022-11-21T00:35:45.094Z,986.22
2022-11-21T00:36:45.095Z,986.25
2022-11-21T00:37:45.071Z,986.22
2022-11-21T00:38:45.051Z,986.17
2022-11-21T00:39:45.042Z,986.18
2022-11-21T00:40:45.022Z,986.35
2022-11-21T00:41:45.063Z,986.16
2022-11-21T00:42:45.014Z,986.17
2022-11-21T00:43:44.999Z,986.20
2022-11-21T00:44:44.979Z,986.14
2022-11-21T00:45:44.981Z,986.20
2022-11-21T00:46:44.956Z,986.21
2022-11-21T00:47:44.984Z,986.27
2022-11-21T00:48:44.938Z,986.17
2022-11-21T00:49:44.933Z,986.13
2022-11-21T00:50:44.914Z,986.15
2022-11-21T00:51:44.914Z,986.15
2022-11-21T00:52:44.912Z,986.16
2022-11-21T00:53:44.902Z,986.23
2022-11-21T00:54:44.866Z,986.26
2022-11-21T00:55:44.860Z,986.20
2022-11-21T00:56:44.851Z,986.17
2022-11-21T00:57:44.840Z,986.17
2022-11-21T00:58:44.861Z,986.22
2022-11-21T00:59:44.820Z,986.20
2022-11-21T01:00:44.822Z,986.18
2022-11-21T01:01:44.797Z,986.15
2022-11-21T01:02:44.796Z,986.15
2022-11-21T01:03:44.771Z,986.21
2022-11-21T01:04:44.791Z,986.15
2022-11-21T01:05:44.770Z,986.26
2022-11-21T01:06:44.740Z,986.10
2022-11-21T01:07:44.753Z,986.19
2022-11-21T01:08:44.714Z,986.18
2022-11-21T01:09:44.711Z,986.14
2022-11-21T01:10:44.721Z,986.17
2022-11-21T01:11:44.682Z,986.18
2022-11-21T01:12:44.673Z,986.17
2022-11-21T01:13:44.661Z,986.16
2022-11-21T01:14:44.644Z,986.15
2022-11-21T01:15:44.832Z,986.10
2022-11-21T01:16:44.622Z,986.04
2022-11-21T01:17:44.611Z,986.06
2022-11-21T01:18:44.720Z,986.07
2022-11-21T01:19:44.592Z,986.05
2022-11-21T01:20:44.581Z,986.05
2022-11-21T01:21:44.604Z,986.16
2022-11-21T01:22:44.559Z,986.15
2022-11-21T01:23:44.547Z,986.10
2022-11-21T01:24:44.529Z,986.18
2022-11-21T01:25:44.534Z,986.02
2022-11-21T01:26:44.510Z,986.13
2022-11-21T01:27:44.534Z,986.09
2022-11-21T01:28:44.480Z,986.11
2022-11-21T01:29:44.481Z,986.12
2022-11-21T01:30:44.460Z,986.06
2022-11-21T01:31:44.464Z,986.05
2022-11-21T01:32:44.451Z,986.00
2022-11-21T01:33:44.456Z,986.15
2022-11-21T01:34:44.420Z,986.08
2022-11-21T01:35:44.420Z,985.97
2022-11-21T01:36:44.404Z,986.05
2022-11-21T01:37:44.390Z,986.02
2022-11-21T01:38:44.400Z,985.99
2022-11-21T01:39:44.370Z,985.92
2022-11-21T01:40:44.361Z,985.91
2022-11-21T01:41:44.357Z,985.98
2022-11-21T01:42:44.350Z,985.99
2022-11-21T01:43:44.330Z,985.93
2022-11-21T01:44:44.327Z,986.01
2022-11-21T01:45:44.310Z,985.98
2022-11-21T01:46:44.289Z,985.94
2022-11-21T01:47:44.353Z,986.00
2022-11-21T01:48:44.263Z,985.94
2022-11-21T01:49:44.288Z,985.99
2022-11-21T01:50:44.245Z,985.93
2022-11-21T01:51:44.232Z,985.97
2022-11-21T01:52:44.219Z,985.98
2022-11-21T01:53:44.210Z,985.95
2022-11-21T01:54:44.235Z,985.89
2022-11-21T01:55:44.222Z,985.85
2022-11-21T01:56:44.191Z,985.93
2022-11-21T01:57:44.234Z,985.90
2022-11-21T01:58:44.163Z,985.92
2022-11-21T01:59:44.218Z,985.87
2022-11-21T02:00:44.205Z,985.97
2022-11-21T02:01:44.167Z,985.96
2022-11-21T02:02:44.110Z,985.93
2022-11-21T02:03:44.098Z,985.95
2022-11-21T02:04:44.094Z,985.95
2022-11-21T02:05:44.086Z,985.95
2022-11-21T02:06:44.070Z,985.92
2022-11-21T02:07:44.090Z,985.90
2022-11-21T02:08:44.048Z,985.92
2022-11-21T02:09:44.031Z,985.93
2022-11-21T02:10:44.028Z,985.93
2022-11-21T02:11:44.009Z,985.89
2022-11-21T02:12:44.028Z,986.00
2022-11-21T02:13:43.993Z,986.00
2022-11-21T02:14:43.979Z,986.06
2022-11-21T02:15:43.978Z,986.02
2022-11-21T02:16:43.960Z,986.05
2022-11-21T02:17:43.948Z,986.03
2022-11-21T02:18:43.999Z,986.15
2022-11-21T02:19:43.922Z,986.09
2022-11-21T02:20:43.959Z,985.98
2022-11-21T02:21:43.899Z,985.96
2022-11-21T02:22:43.896Z,986.00
2022-11-21T02:23:43.879Z,985.99
2022-11-21T02:24:43.908Z,985.98
2022-11-21T02:25:43.871Z,985.95
2022-11-21T02:26:43.838Z,985.93
2022-11-21T02:27:43.850Z,985.98
2022-11-21T02:28:43.818Z,986.01
2022-11-21T02:29:43.807Z,986.07
2022-11-21T02:30:43.808Z,986.09
2022-11-21T02:31:43.780Z,986.10
2022-11-21T02:32:43.787Z,986.12
2022-11-21T02:33:43.758Z,986.14
2022-11-21T02:34:43.747Z,986.15
2022-11-21T02:35:43.766Z,986.17
2022-11-21T02:36:43.727Z,986.20
2022-11-21T02:37:43.722Z,986.17
2022-11-21T02:38:43.707Z,986.22
2022-11-21T02:39:43.705Z,986.20
2022-11-21T02:40:43.688Z,986.34
2022-11-21T02:41:43.694Z,986.33
2022-11-21T02:42:43.660Z,986.20
2022-11-21T02:43:43.659Z,986.31
2022-11-21T02:44:43.645Z,986.41
2022-11-21T02:45:43.675Z,986.40
2022-11-21T02:46:43.618Z,986.33
2022-11-21T02:47:43.618Z,986.34
2022-11-21T02:48:43.597Z,986.39
2022-11-21T02:49:43.586Z,986.35
2022-11-21T02:50:43.589Z,986.38
2022-11-21T02:51:43.547Z,986.39
2022-11-21T02:52:43.592Z,986.32
2022-11-21T02:53:43.542Z,986.43
2022-11-21T02:54:43.528Z,986.43
2022-11-21T02:55:43.526Z,986.46
2022-11-21T02:56:43.504Z,986.52
2022-11-21T02:57:43.490Z,986.52
2022-11-21T02:58:43.497Z,986.47
2022-11-21T02:59:43.466Z,986.51
2022-11-21T03:00:43.508Z,986.53
2022-11-21T03:01:43.437Z,986.39
2022-11-21T03:02:43.430Z,986.49
2022-11-21T03:03:43.418Z,986.49
2022-11-21T03:04:43.428Z,986.47
2022-11-21T03:05:43.437Z,986.37
2022-11-21T03:06:43.478Z,986.49
2022-11-21T03:07:43.424Z,986.45
2022-11-21T03:08:43.365Z,986.46
2022-11-21T03:09:43.376Z,986.41
2022-11-21T03:10:43.337Z,986.51
2022-11-21T03:11:43.338Z,986.54
2022-11-21T03:12:43.316Z,986.58
2022-11-21T03:13:43.307Z,986.43
2022-11-21T03:14:43.300Z,986.50
2022-11-21T03:15:43.317Z,986.43
2022-11-21T03:16:43.276Z,986.50
2022-11-21T03:17:43.443Z,986.51
2022-11-21T03:18:43.246Z,986.54
2022-11-21T03:19:43.239Z,986.57
2022-11-21T03:20:43.226Z,986.54
2022-11-21T03:21:43.269Z,986.54
2022-11-21T03:22:43.216Z,986.54
2022-11-21T03:23:43.188Z,986.58
2022-11-21T03:24:43.177Z,986.60
2022-11-21T03:25:43.196Z,986.55
2022-11-21T03:26:43.160Z,986.67
2022-11-21T03:27:43.177Z,986.57
2022-11-21T03:28:43.158Z,986.62
2022-11-21T03:29:43.125Z,986.59
2022-11-21T03:30:43.114Z,986.66
2022-11-21T03:31:43.121Z,986.66
2022-11-21T03:32:43.100Z,986.64
2022-11-21T03:33:43.085Z,986.68
2022-11-21T03:34:43.073Z,986.68
2022-11-21T03:35:43.065Z,986.64
2022-11-21T03:36:43.044Z,986.70
2022-11-21T03:37:43.037Z,986.76
2022-11-21T03:38:43.048Z,986.74
2022-11-21T03:39:43.025Z,986.78
2022-11-21T03:40:42.998Z,986.78
2022-11-21T03:41:43.000Z,986.71
2022-11-21T03:42:42.976Z,986.69
2022-11-21T03:43:42.960Z,986.72
2022-11-21T03:44:42.967Z,986.70
2022-11-21T03:45:42.945Z,986.75
2022-11-21T03:46:42.936Z,986.75
2022-11-21T03:47:42.918Z,986.77
2022-11-21T03:48:42.908Z,986.81
2022-11-21T03:49:42.915Z,986.81
2022-11-21T03:50:42.907Z,986.86
2022-11-21T03:51:42.864Z,986.84
2022-11-21T03:52:42.863Z,986.85
2022-11-21T03:53:42.845Z,986.92
2022-11-21T03:54:42.836Z,986.90
2022-11-21T03:55:42.854Z,986.95
2022-11-21T03:56:42.817Z,986.89
2022-11-21T03:57:42.802Z,986.85
2022-11-21T03:58:42.797Z,986.86
2022-11-21T03:59:42.830Z,986.86
2022-11-21T04:00:42.777Z,986.87
2022-11-21T04:01:42.796Z,986.84
2022-11-21T04:02:42.755Z,986.87
2022-11-21T04:03:42.727Z,986.81
2022-11-21T04:04:42.723Z,986.81
2022-11-21T04:05:50.983Z,986.88
2022-11-21T04:06:45.312Z,986.84
2022-11-21T04:07:42.803Z,986.80
2022-11-21T04:08:42.672Z,986.91
2022-11-21T04:09:42.661Z,986.87
2022-11-21T04:10:42.654Z,986.88
2022-11-21T04:11:42.636Z,986.88
2022-11-21T04:12:42.643Z,986.93
2022-11-21T04:13:42.604Z,986.87
2022-11-21T04:14:42.599Z,986.90
2022-11-21T04:15:42.604Z,986.91
2022-11-21T04:16:42.572Z,986.85
2022-11-21T04:17:42.565Z,986.84
2022-11-21T04:18:42.574Z,986.91
2022-11-21T04:19:42.542Z,986.83
2022-11-21T04:20:42.532Z,986.83
2022-11-21T04:21:42.522Z,986.82
2022-11-21T04:22:42.510Z,986.87
2022-11-21T04:23:42.492Z,986.83
2022-11-21T04:24:42.504Z,986.88
2022-11-21T04:25:42.490Z,986.86
2022-11-21T04:26:42.462Z,986.85
2022-11-21T04:27:42.463Z,986.85
2022-11-21T04:28:42.443Z,986.87
2022-11-21T04:29:42.472Z,986.81
2022-11-21T04:30:42.426Z,986.85
2022-11-21T04:31:42.409Z,986.80
2022-11-21T04:32:42.402Z,986.81
2022-11-21T04:33:42.389Z,986.82
2022-11-21T04:34:42.488Z,986.92
2022-11-21T04:35:42.401Z,986.93
2022-11-21T04:36:42.382Z,986.91
2022-11-21T04:37:42.350Z,986.86
2022-11-21T04:38:42.323Z,986.95
2022-11-21T04:39:42.311Z,986.87
2022-11-21T04:40:42.309Z,986.90
2022-11-21T04:41:42.331Z,986.94
2022-11-21T04:42:42.287Z,986.92
2022-11-21T04:43:42.272Z,986.88
2022-11-21T04:44:42.260Z,986.93
2022-11-21T04:45:42.269Z,986.87
2022-11-21T04:46:42.242Z,986.91
2022-11-21T04:47:42.241Z,986.93
2022-11-21T04:48:42.211Z,986.88
2022-11-21T04:49:42.201Z,986.92
2022-11-21T04:50:42.195Z,986.91
2022-11-21T04:51:42.182Z,986.93
2022-11-21T04:52:42.172Z,986.93
2022-11-21T04:53:43.367Z,986.92
2022-11-21T04:54:42.155Z,986.92
2022-11-21T04:55:42.151Z,986.94
2022-11-21T04:56:42.121Z,986.97
2022-11-21T04:57:42.112Z,986.94
2022-11-21T04:58:42.110Z,986.95
2022-11-21T04:59:42.110Z,986.98
2022-11-21T05:00:42.085Z,986.93
2022-11-21T05:01:42.120Z,986.95
2022-11-21T05:02:42.061Z,986.97
2022-11-21T05:03:42.060Z,987.00
2022-11-21T05:04:42.042Z,986.99
2022-11-21T05:05:42.060Z,987.02
2022-11-21T05:06:42.013Z,987.01
2022-11-21T05:07:42.059Z,986.98
2022-11-21T05:08:42.000Z,986.94
2022-11-21T05:09:41.990Z,987.05
2022-11-21T05:10:41.971Z,986.97
2022-11-21T05:11:41.980Z,987.10
2022-11-21T05:12:41.942Z,987.03
2022-11-21T05:13:41.936Z,987.06
2022-11-21T05:14:41.922Z,987.03
2022-11-21T05:15:41.920Z,987.10
2022-11-21T05:16:41.903Z,987.03
2022-11-21T05:17:41.911Z,986.98
2022-11-21T05:18:41.875Z,987.07
2022-11-21T05:19:41.893Z,986.94
2022-11-21T05:20:41.850Z,986.90
2022-11-21T05:21:41.832Z,987.01
2022-11-21T05:22:41.860Z,987.05
2022-11-21T05:23:41.823Z,987.02
2022-11-21T05:24:41.809Z,987.04
2022-11-21T05:25:41.811Z,987.07
2022-11-21T05:26:41.785Z,986.95
2022-11-21T05:27:41.773Z,986.99
2022-11-21T05:28:41.791Z,986.98
2022-11-21T05:29:41.750Z,986.92
2022-11-21T05:30:41.749Z,986.89
2022-11-21T05:31:41.721Z,986.86
2022-11-21T05:32:41.719Z,986.86
2022-11-21T05:33:41.729Z,986.87
2022-11-21T05:34:41.702Z,986.78
2022-11-21T05:35:43.387Z,986.84
2022-11-21T05:36:41.669Z,986.77
2022-11-21T05:37:41.659Z,986.80
2022-11-21T05:38:41.652Z,986.87
2022-11-21T05:39:41.651Z,986.88
2022-11-21T05:40:41.619Z,986.93
2022-11-21T05:41:41.610Z,986.94
2022-11-21T05:42:41.608Z,986.99
2022-11-21T05:43:41.589Z,986.98
2022-11-21T05:44:41.578Z,986.91
2022-11-21T05:45:41.609Z,986.96
2022-11-21T05:46:41.550Z,986.93
2022-11-21T05:47:41.543Z,987.01
2022-11-21T05:48:41.529Z,986.99
2022-11-21T05:49:41.518Z,987.06
2022-11-21T05:50:41.524Z,986.96
2022-11-21T05:51:41.509Z,987.02
2022-11-21T05:52:41.479Z,987.04
2022-11-21T05:53:41.469Z,986.96
2022-11-21T05:54:45.009Z,986.97
2022-11-21T05:55:41.463Z,986.97
2022-11-21T05:56:41.439Z,986.93
2022-11-21T05:57:41.451Z,986.87
2022-11-21T05:58:41.419Z,986.89
2022-11-21T05:59:41.402Z,986.89
2022-11-21T06:00:41.399Z,986.89
2022-11-21T06:01:41.382Z,986.93
2022-11-21T06:02:41.431Z,986.93
2022-11-21T06:03:41.379Z,986.89
2022-11-21T06:04:41.349Z,986.96
2022-11-21T06:05:41.366Z,986.98
2022-11-21T06:06:41.321Z,986.97
2022-11-21T06:07:41.386Z,986.98
2022-11-21T06:08:41.297Z,987.01
2022-11-21T06:09:41.489Z,987.02
2022-11-21T06:10:41.279Z,987.05
2022-11-21T06:11:41.259Z,987.01
2022-11-21T06:12:41.248Z,987.03
2022-11-21T06:13:41.248Z,987.05
2022-11-21T06:14:41.230Z,987.02
2022-11-21T06:15:41.269Z,986.93
2022-11-21T06:16:41.208Z,986.94
2022-11-21T06:17:41.193Z,986.92
2022-11-21T06:18:41.178Z,986.86
2022-11-21T06:19:41.170Z,986.95
2022-11-21T06:20:41.166Z,986.92
2022-11-21T06:21:41.161Z,986.93
2022-11-21T06:22:41.130Z,987.02
2022-11-21T06:23:41.130Z,987.08
2022-11-21T06:24:41.110Z,987.08
2022-11-21T06:25:41.120Z,987.07
2022-11-21T06:26:41.108Z,987.02
2022-11-21T06:27:41.079Z,987.06
2022-11-21T06:28:41.066Z,987.10
2022-11-21T06:29:41.048Z,987.06
2022-11-21T06:30:41.129Z,987.02
2022-11-21T06:31:41.028Z,987.09
2022-11-21T06:32:41.061Z,987.05
2022-11-21T06:33:41.011Z,987.09
2022-11-21T06:34:40.997Z,987.10
2022-11-21T06:35:41.017Z,987.12
2022-11-21T06:36:40.968Z,987.10
2022-11-21T06:37:40.966Z,987.13
2022-11-21T06:38:40.968Z,987.12
2022-11-21T06:39:40.939Z,987.07
2022-11-21T06:40:40.919Z,987.12
2022-11-21T06:41:40.918Z,987.13
2022-11-21T06:42:40.898Z,987.10
2022-11-21T06:43:40.897Z,987.12
2022-11-21T06:44:40.898Z,987.11
2022-11-21T06:45:40.892Z,987.11
2022-11-21T06:46:40.858Z,987.05
2022-11-21T06:47:40.956Z,987.09
2022-11-21T06:48:40.827Z,987.11
2022-11-21T06:49:40.847Z,987.12
2022-11-21T06:50:40.808Z,987.11
2022-11-21T06:51:40.805Z,987.12
2022-11-21T06:52:40.789Z,987.14
2022-11-21T06:53:40.777Z,987.10
2022-11-21T06:54:40.767Z,987.10
2022-11-21T06:55:40.797Z,987.15
2022-11-21T06:56:40.737Z,987.18
2022-11-21T06:57:40.736Z,987.19
2022-11-21T06:58:40.740Z,987.21
2022-11-21T06:59:40.707Z,987.20
2022-11-21T07:00:40.698Z,987.21
2022-11-21T07:01:40.764Z,987.20
2022-11-21T07:02:40.668Z,987.17
2022-11-21T07:03:40.667Z,987.21
2022-11-21T07:04:40.656Z,987.29
2022-11-21T07:05:40.660Z,987.30
2022-11-21T07:06:40.655Z,987.34
2022-11-21T07:07:40.700Z,987.31
2022-11-21T07:08:40.607Z,987.42
2022-11-21T07:09:40.597Z,987.41
2022-11-21T07:10:42.559Z,987.37
2022-11-21T07:11:41.597Z,987.43
2022-11-21T07:12:40.557Z,987.43
2022-11-21T07:13:40.557Z,987.41
2022-11-21T07:14:40.537Z,987.43
2022-11-21T07:15:40.544Z,987.41
2022-11-21T07:16:40.516Z,987.42
2022-11-21T07:17:40.527Z,987.43
2022-11-21T07:18:40.496Z,987.35
2022-11-21T07:19:41.117Z,987.39
2022-11-21T07:20:40.478Z,987.42
2022-11-21T07:21:40.464Z,987.48
2022-11-21T07:22:40.446Z,987.46
2022-11-21T07:23:40.456Z,987.44
2022-11-21T07:24:40.427Z,987.55
2022-11-21T07:25:40.516Z,987.51
2022-11-21T07:26:40.406Z,987.50
2022-11-21T07:27:40.397Z,987.49
2022-11-21T07:28:40.378Z,987.53
2022-11-21T07:29:40.396Z,987.45
2022-11-21T07:30:40.366Z,987.43
2022-11-21T07:31:40.373Z,987.49
2022-11-21T07:32:40.335Z,987.47
2022-11-21T07:33:40.326Z,987.50
2022-11-21T07:34:40.318Z,987.52
2022-11-21T07:35:40.572Z,987.49
2022-11-21T07:36:40.291Z,987.56
2022-11-21T07:37:40.278Z,987.49
2022-11-21T07:38:40.275Z,987.50
2022-11-21T07:39:40.325Z,987.51
2022-11-21T07:40:40.265Z,987.46
2022-11-21T07:41:40.257Z,987.51
2022-11-21T07:42:40.224Z,987.47
2022-11-21T07:43:40.215Z,987.47
2022-11-21T07:44:40.196Z,987.53
2022-11-21T07:45:40.207Z,987.47
2022-11-21T07:46:40.176Z,987.52
2022-11-21T07:47:40.198Z,987.54
2022-11-21T07:48:40.155Z,987.54
2022-11-21T07:49:40.155Z,987.54
2022-11-21T07:50:40.136Z,987.50
2022-11-21T07:51:40.126Z,987.46
2022-11-21T07:52:40.115Z,987.49
2022-11-21T07:53:40.135Z,987.51
2022-11-21T07:54:40.085Z,987.48
2022-11-21T07:55:40.999Z,987.53
2022-11-21T07:56:40.072Z,987.49
2022-11-21T07:57:40.056Z,987.48
2022-11-21T07:58:40.047Z,987.47
2022-11-21T07:59:40.065Z,987.51
2022-11-21T08:00:40.118Z,987.47
2022-11-21T08:01:45.018Z,987.44
2022-11-21T08:02:40.996Z,987.48
2022-11-21T08:03:39.994Z,987.42
2022-11-21T08:04:39.986Z,987.50
2022-11-21T08:05:40.004Z,987.50
2022-11-21T08:06:39.966Z,987.53
2022-11-21T08:07:40.042Z,987.49
2022-11-21T08:08:39.935Z,987.48
2022-11-21T08:09:40.018Z,987.45
2022-11-21T08:10:39.912Z,987.51
2022-11-21T08:11:39.953Z,987.46
2022-11-21T08:12:39.885Z,987.46
2022-11-21T08:13:39.886Z,987.47
2022-11-21T08:14:39.865Z,987.48
2022-11-21T08:15:39.868Z,987.53
2022-11-21T08:16:39.846Z,987.47
2022-11-21T08:17:39.863Z,987.39
2022-11-21T08:18:39.834Z,987.39
2022-11-21T08:19:39.818Z,987.44
2022-11-21T08:20:39.805Z,987.41
2022-11-21T08:21:39.795Z,987.37
2022-11-21T08:22:39.778Z,987.32
2022-11-21T08:23:39.794Z,987.33
2022-11-21T08:24:39.755Z,987.34
2022-11-21T08:25:39.759Z,987.32
2022-11-21T08:26:39.725Z,987.32
2022-11-21T08:27:39.732Z,987.34
2022-11-21T08:28:39.705Z,987.36
2022-11-21T08:29:39.725Z,987.35
2022-11-21T08:30:39.694Z,987.33
2022-11-21T08:31:39.677Z,987.32
2022-11-21T08:32:39.670Z,987.23
2022-11-21T08:33:39.658Z,987.30
2022-11-21T08:34:39.655Z,987.26
2022-11-21T08:35:39.676Z,987.25
2022-11-21T08:36:39.631Z,987.21
2022-11-21T08:37:39.614Z,987.25
2022-11-21T08:38:39.625Z,987.29
2022-11-21T08:39:39.598Z,987.28
2022-11-21T08:40:39.577Z,987.32
2022-11-21T08:41:39.596Z,987.31
2022-11-21T08:42:39.591Z,987.36
2022-11-21T08:43:39.555Z,987.28
2022-11-21T08:44:39.525Z,987.33
2022-11-21T08:45:39.540Z,987.27
2022-11-21T08:46:39.516Z,987.36
2022-11-21T08:47:39.529Z,987.29
2022-11-21T08:48:39.488Z,987.28
2022-11-21T08:49:39.485Z,987.32
2022-11-21T08:50:39.486Z,987.30
2022-11-21T08:51:39.467Z,987.33
2022-11-21T08:52:39.457Z,987.33
2022-11-21T08:53:39.461Z,987.31
2022-11-21T08:54:39.429Z,987.40
2022-11-21T08:55:39.438Z,987.45
2022-11-21T08:56:39.404Z,987.43
2022-11-21T08:57:39.450Z,987.45
2022-11-21T08:58:39.382Z,987.42
2022-11-21T08:59:39.398Z,987.36
2022-11-21T09:00:39.355Z,987.42
2022-11-21T09:01:39.423Z,987.41
2022-11-21T09:02:39.334Z,987.43
2022-11-21T09:03:39.326Z,987.41
2022-11-21T09:04:39.366Z,987.30
2022-11-21T09:05:39.393Z,987.27
2022-11-21T09:06:39.285Z,987.21
2022-11-21T09:07:39.310Z,987.16
2022-11-21T09:08:39.304Z,987.18
2022-11-21T09:09:39.268Z,987.11
2022-11-21T09:10:39.242Z,987.13
2022-11-21T09:11:39.264Z,987.14
2022-11-21T09:12:39.224Z,987.02
2022-11-21T09:13:39.215Z,987.03
2022-11-21T09:14:39.217Z,987.12
2022-11-21T09:15:39.197Z,987.04
2022-11-21T09:16:39.178Z,987.07
2022-11-21T09:17:39.235Z,987.04
2022-11-21T09:18:39.165Z,987.12
2022-11-21T09:19:39.145Z,987.05
2022-11-21T09:20:39.196Z,987.14
2022-11-21T09:21:39.125Z,987.12
2022-11-21T09:22:39.106Z,987.10
2022-11-21T09:23:39.124Z,987.05
2022-11-21T09:24:39.084Z,987.15
2022-11-21T09:25:39.085Z,987.08
2022-11-21T09:26:39.068Z,987.18
2022-11-21T09:27:39.066Z,987.14
2022-11-21T09:28:39.036Z,987.17
2022-11-21T09:29:39.066Z,987.23
2022-11-21T09:30:39.025Z,987.18
2022-11-21T09:31:39.014Z,987.22
2022-11-21T09:32:39.003Z,987.22
2022-11-21T09:33:38.985Z,987.22
2022-11-21T09:34:38.976Z,987.26
2022-11-21T09:35:38.996Z,987.30
2022-11-21T09:36:38.945Z,987.21
2022-11-21T09:37:39.033Z,987.21
2022-11-21T09:38:38.935Z,987.32
2022-11-21T09:39:38.925Z,987.30
2022-11-21T09:40:38.915Z,987.25
2022-11-21T09:41:38.915Z,987.31
2022-11-21T09:42:38.885Z,987.26
2022-11-21T09:43:38.883Z,987.36
2022-11-21T09:44:38.865Z,987.37
2022-11-21T09:45:38.866Z,987.32
2022-11-21T09:46:38.836Z,987.39
2022-11-21T09:47:38.875Z,987.37
2022-11-21T09:48:39.024Z,987.37
2022-11-21T09:49:38.806Z,987.38
2022-11-21T09:50:38.805Z,987.38
2022-11-21T09:51:38.786Z,987.37
2022-11-21T09:52:38.776Z,987.39
2022-11-21T09:53:38.785Z,987.40
2022-11-21T09:54:38.746Z,987.38
2022-11-21T09:55:38.748Z,987.36
2022-11-21T09:56:38.736Z,987.39
2022-11-21T09:57:38.715Z,987.31
2022-11-21T09:58:38.696Z,987.32
2022-11-21T09:59:38.727Z,987.36
2022-11-21T10:00:38.762Z,987.27
2022-11-21T10:01:38.673Z,987.25
2022-11-21T10:02:38.669Z,987.23
2022-11-21T10:03:38.658Z,987.19
2022-11-21T10:04:38.636Z,987.22
2022-11-21T10:05:38.685Z,987.19
2022-11-21T10:06:38.643Z,987.14
2022-11-21T10:07:47.237Z,987.13
2022-11-21T10:08:38.592Z,987.17
2022-11-21T10:09:38.583Z,987.14
2022-11-21T10:10:38.571Z,987.07
2022-11-21T10:11:38.602Z,987.06
2022-11-21T10:12:38.552Z,987.00
2022-11-21T10:13:38.541Z,986.98
2022-11-21T10:14:38.521Z,986.91
2022-11-21T10:15:38.542Z,987.03
2022-11-21T10:16:41.987Z,986.98
2022-11-21T10:17:38.522Z,986.94
2022-11-21T10:18:38.482Z,986.93
2022-11-21T10:19:38.472Z,986.95
2022-11-21T10:20:38.463Z,986.95
2022-11-21T10:21:38.451Z,986.91
2022-11-21T10:22:38.434Z,986.97
2022-11-21T10:23:38.470Z,986.99
2022-11-21T10:24:38.432Z,986.96
2022-11-21T10:25:38.461Z,986.88
2022-11-21T10:26:38.402Z,986.91
2022-11-21T10:27:42.131Z,986.91
2022-11-21T10:28:38.363Z,986.92
2022-11-21T10:29:38.380Z,986.87
2022-11-21T10:30:38.342Z,986.79
2022-11-21T10:31:38.335Z,986.82
2022-11-21T10:32:38.322Z,986.86
2022-11-21T10:33:38.310Z,986.83
2022-11-21T10:34:38.304Z,986.80
2022-11-21T10:35:38.432Z,986.81
2022-11-21T10:36:38.282Z,986.83
2022-11-21T10:37:38.262Z,986.77
2022-11-21T10:38:38.253Z,986.80
2022-11-21T10:39:38.243Z,986.83
2022-11-21T10:40:38.223Z,986.81
2022-11-21T10:41:38.437Z,986.77
2022-11-21T10:42:38.221Z,986.83
2022-11-21T10:43:38.203Z,986.79
2022-11-21T10:44:38.182Z,986.82
2022-11-21T10:45:38.195Z,986.82
2022-11-21T10:46:38.162Z,986.76
2022-11-21T10:47:38.172Z,986.80
2022-11-21T10:48:38.143Z,986.73
2022-11-21T10:49:38.159Z,986.79
2022-11-21T10:50:38.113Z,986.72
2022-11-21T10:51:38.102Z,986.72
2022-11-21T10:52:38.100Z,986.70
2022-11-21T10:53:38.100Z,986.66
2022-11-21T10:54:38.071Z,986.65
2022-11-21T10:55:38.064Z,986.58
2022-11-21T10:56:38.052Z,986.60
2022-11-21T10:57:38.042Z,986.59
2022-11-21T10:58:38.030Z,986.64
2022-11-21T10:59:38.045Z,986.56
2022-11-21T11:00:38.015Z,986.54
2022-11-21T11:01:38.000Z,986.51
2022-11-21T11:02:37.983Z,986.52
2022-11-21T11:03:37.962Z,986.44
2022-11-21T11:04:47.560Z,986.44
2022-11-21T11:05:38.979Z,986.46
2022-11-21T11:06:37.936Z,986.38
2022-11-21T11:07:37.956Z,986.31
2022-11-21T11:08:37.923Z,986.31
2022-11-21T11:09:37.912Z,986.28
2022-11-21T11:10:38.023Z,986.28
2022-11-21T11:11:37.906Z,986.26
2022-11-21T11:12:37.872Z,986.22
2022-11-21T11:13:45.834Z,986.21
2022-11-21T11:14:38.853Z,986.17
2022-11-21T11:15:37.834Z,986.18
2022-11-21T11:16:41.636Z,986.21
2022-11-21T11:17:37.831Z,986.20
2022-11-21T11:18:37.800Z,986.23
2022-11-21T11:19:40.400Z,986.18
2022-11-21T11:20:37.787Z,986.20
2022-11-21T11:21:37.762Z,986.26
2022-11-21T11:22:37.763Z,986.20
2022-11-21T11:23:37.762Z,986.16
2022-11-21T11:24:37.741Z,986.19
2022-11-21T11:25:37.721Z,986.20
2022-11-21T11:26:37.711Z,986.21
2022-11-21T11:27:37.704Z,986.23
2022-11-21T11:28:37.746Z,986.19
2022-11-21T11:29:37.732Z,986.25
2022-11-21T11:30:37.750Z,986.20
2022-11-21T11:31:37.658Z,986.21
2022-11-21T11:32:37.685Z,986.19
2022-11-21T11:33:37.659Z,986.15
2022-11-21T11:34:37.638Z,986.22
2022-11-21T11:35:37.632Z,986.10
2022-11-21T11:36:37.632Z,986.06
2022-11-21T11:37:40.417Z,986.04
2022-11-21T11:38:37.583Z,986.02
2022-11-21T11:39:37.566Z,985.98
2022-11-21T11:40:37.554Z,985.95
2022-11-21T11:41:37.568Z,985.93
2022-11-21T11:42:37.566Z,985.90
2022-11-21T11:43:37.533Z,985.87
2022-11-21T11:44:37.512Z,985.91
2022-11-21T11:45:37.505Z,985.83
2022-11-21T11:46:37.493Z,985.79
2022-11-21T11:47:37.837Z,985.76
2022-11-21T11:48:50.365Z,985.78
2022-11-21T11:49:38.677Z,985.78
2022-11-21T11:50:37.494Z,985.79
2022-11-21T11:51:37.438Z,985.81
2022-11-21T11:52:37.494Z,985.73
2022-11-21T11:53:37.423Z,985.76
2022-11-21T11:54:37.395Z,985.78
2022-11-21T11:55:37.383Z,985.79
2022-11-21T11:56:37.374Z,985.74
2022-11-21T11:57:37.355Z,985.76
2022-11-21T11:58:37.353Z,985.74
2022-11-21T11:59:37.357Z,985.74
2022-11-21T12:00:37.333Z,985.83
2022-11-21T12:01:37.326Z,985.79
2022-11-21T12:02:37.325Z,985.79
2022-11-21T12:03:37.474Z,985.78
2022-11-21T12:04:37.312Z,985.75
2022-11-21T12:05:37.294Z,985.70
2022-11-21T12:07:26.166Z,985.76
2022-11-21T12:08:38.895Z,985.65
2022-11-21T12:08:42.528Z,985.65
2022-11-21T12:09:37.312Z,985.65
2022-11-21T12:10:37.224Z,985.67
2022-11-21T12:11:37.223Z,985.71
2022-11-21T12:12:37.196Z,985.64
2022-11-21T12:13:37.193Z,985.62
2022-11-21T12:14:37.173Z,985.58
2022-11-21T12:15:37.167Z,985.55
2022-11-21T12:16:37.152Z,985.53
2022-11-21T12:17:37.157Z,985.48
2022-11-21T12:18:37.124Z,985.46
2022-11-21T12:19:37.114Z,985.47
2022-11-21T12:20:37.117Z,985.47
2022-11-21T12:21:37.094Z,985.51
2022-11-21T12:22:37.086Z,985.45
2022-11-21T12:23:37.125Z,985.51
2022-11-21T12:24:39.938Z,985.43
2022-11-21T12:25:38.054Z,985.43
2022-11-21T12:26:37.040Z,985.38
2022-11-21T12:27:37.023Z,985.35
2022-11-21T12:28:37.083Z,985.40